Time;durP1;ratioP1;P1;durP2;ratioP2;P2;SDS_P1;SDS_P2;PMS_P1;PMS_P2;Temp;Humidity;BMP_temperature;BMP_pressure;BME280_temperature;BME280_humidity;BME280_pressure;Samples;Min_cycle;Max_cycle;Signal;HPM_P1;HPM_P2
2022/08/17 00:00:17;;;;;;;3.87;2.77;;;19.00;75.60;;;;;;5074585;28;20668;-84
2022/08/17 00:02:58;;;;;;;2.67;2.33;;;19.00;75.50;;;;;;5066179;28;20618;-84
2022/08/17 00:05:25;;;;;;;3.13;2.83;;;19.00;75.50;;;;;;5067802;28;20633;-84
2022/08/17 00:07:52;;;;;;;2.70;2.50;;;19.00;74.00;;;;;;5067856;28;20636;-84
2022/08/17 00:10:19;;;;;;;4.50;3.63;;;19.00;73.40;;;;;;5080804;28;21218;-82
2022/08/17 00:12:46;;;;;;;3.10;2.80;;;18.90;74.10;;;;;;5068591;28;20729;-84
2022/08/17 00:15:14;;;;;;;3.40;3.10;;;18.80;75.60;;;;;;5068145;28;20660;-84
2022/08/17 00:17:42;;;;;;;4.20;3.63;;;18.70;76.30;;;;;;5077946;28;20624;-84
2022/08/17 00:20:12;;;;;;;2.77;2.53;;;18.60;77.20;;;;;;5076777;28;20665;-84
2022/08/17 00:22:39;;;;;;;3.53;3.13;;;18.60;78.10;;;;;;5075727;28;20716;-84
2022/08/17 00:25:10;;;;;;;3.00;2.70;;;18.70;78.20;;;;;;5073370;28;20675;-84
2022/08/17 00:27:37;;;;;;;4.03;3.00;;;18.70;78.20;;;;;;5072163;28;20629;-84
2022/08/17 00:30:07;;;;;;;3.27;3.03;;;18.70;78.70;;;;;;5069551;28;20720;-84
2022/08/17 00:32:37;;;;;;;4.20;3.10;;;18.70;77.90;;;;;;5067289;28;20612;-82
2022/08/17 00:35:05;;;;;;;4.20;3.80;;;18.70;77.00;;;;;;5078924;28;20627;-84
2022/08/17 00:37:34;;;;;;;4.50;2.23;;;18.60;78.80;;;;;;5086686;28;20629;-84
2022/08/17 00:40:00;;;;;;;4.13;3.30;;;18.50;79.90;;;;;;5085962;28;20628;-83
2022/08/17 00:42:27;;;;;;;2.50;2.30;;;18.60;78.20;;;;;;5088548;28;20616;-84
2022/08/17 00:44:54;;;;;;;8.20;3.03;;;18.60;79.10;;;;;;5076271;28;20658;-84
2022/08/17 00:47:21;;;;;;;8.50;3.17;;;18.60;79.80;;;;;;5070720;28;20621;-84
2022/08/17 00:49:48;;;;;;;3.23;2.47;;;18.50;79.90;;;;;;5072158;28;20629;-84
2022/08/17 00:52:20;;;;;;;4.00;3.60;;;18.40;80.10;;;;;;5071200;28;20768;-84
2022/08/17 00:54:51;;;;;;;3.67;3.10;;;18.40;80.20;;;;;;5085519;28;20971;-84
2022/08/17 00:57:22;;;;;;;3.60;3.30;;;18.40;80.10;;;;;;5085481;28;21057;-84
2022/08/17 00:59:52;;;;;;;3.87;3.53;;;18.40;80.40;;;;;;5076592;28;20717;-84
2022/08/17 01:02:20;;;;;;;3.90;2.97;;;18.20;80.90;;;;;;5089646;28;20628;-83
2022/08/17 01:04:50;;;;;;;3.43;2.83;;;18.30;81.40;;;;;;5085531;28;20628;-84
2022/08/17 01:07:20;;;;;;;3.10;2.77;;;18.30;80.20;;;;;;5070254;28;20617;-84
2022/08/17 01:09:50;;;;;;;3.30;3.00;;;18.30;80.80;;;;;;5071637;28;21045;-84
2022/08/17 01:12:17;;;;;;;3.93;3.53;;;18.30;79.90;;;;;;5075967;28;21233;-84
2022/08/17 01:14:45;;;;;;;3.73;3.33;;;18.30;81.50;;;;;;5088255;28;20625;-84
2022/08/17 01:17:13;;;;;;;3.60;2.90;;;18.30;82.30;;;;;;5070240;28;20683;-84
2022/08/17 01:19:42;;;;;;;4.17;3.23;;;18.10;82.60;;;;;;5071987;28;20650;-84
2022/08/17 01:22:20;;;;;;;3.53;3.20;;;18.10;83.20;;;;;;5070617;28;20624;-84
2022/08/17 01:24:52;;;;;;;2.93;2.70;;;18.10;83.70;;;;;;5080566;28;20620;-83
2022/08/17 01:27:21;;;;;;;3.93;3.50;;;18.10;84.00;;;;;;5069464;28;20617;-82
2022/08/17 01:29:51;;;;;;;3.27;2.80;;;18.00;84.40;;;;;;5078129;28;20617;-84
2022/08/17 01:32:19;;;;;;;3.63;2.70;;;18.00;84.70;;;;;;5086366;28;20660;-83
2022/08/17 01:34:48;;;;;;;3.40;3.10;;;18.00;84.10;;;;;;5079014;28;20629;-83
2022/08/17 01:37:20;;;;;;;3.27;2.93;;;18.10;83.30;;;;;;5070032;28;20641;-84
2022/08/17 01:39:52;;;;;;;4.87;3.13;;;18.00;82.70;;;;;;5084011;28;20723;-84
2022/08/17 01:42:24;;;;;;;5.13;3.40;;;18.10;83.50;;;;;;5072224;28;20657;-84
2022/08/17 01:44:55;;;;;;;3.27;3.03;;;18.10;84.60;;;;;;5083569;28;20636;-84
2022/08/17 01:47:22;;;;;;;3.50;3.00;;;17.90;84.90;;;;;;5088463;28;20674;-83
2022/08/17 01:49:50;;;;;;;3.97;2.70;;;17.80;85.10;;;;;;5088882;28;20620;-84
2022/08/17 01:52:20;;;;;;;3.60;3.23;;;17.80;85.20;;;;;;5086497;28;20723;-84
2022/08/17 01:54:51;;;;;;;4.60;3.10;;;17.90;83.20;;;;;;5075321;28;20712;-84
2022/08/17 01:57:18;;;;;;;3.50;3.07;;;17.80;81.80;;;;;;5069959;28;21222;-84
2022/08/17 01:59:46;;;;;;;4.00;2.93;;;17.80;82.40;;;;;;5079617;28;20628;-84
2022/08/17 02:02:13;;;;;;;3.20;2.60;;;17.80;84.60;;;;;;5077389;28;20621;-84
2022/08/17 02:04:40;;;;;;;3.80;3.40;;;17.70;85.10;;;;;;5078386;28;20665;-83
2022/08/17 02:07:07;;;;;;;4.50;2.97;;;17.70;85.40;;;;;;5089233;28;20616;-84
2022/08/17 02:09:35;;;;;;;3.73;3.30;;;17.70;86.00;;;;;;5076705;28;20628;-84
2022/08/17 02:12:03;;;;;;;4.23;3.27;;;17.70;86.20;;;;;;5070159;28;20664;-84
2022/08/17 02:14:30;;;;;;;3.93;3.60;;;17.70;85.10;;;;;;5080663;28;20632;-81
2022/08/17 02:16:57;;;;;;;2.97;2.67;;;17.80;83.90;;;;;;5084036;28;20900;-84
2022/08/17 02:19:24;;;;;;;4.23;3.57;;;17.80;82.90;;;;;;5079584;28;20633;-84
2022/08/17 02:21:53;;;;;;;4.03;3.57;;;17.80;84.40;;;;;;5075053;28;20721;-84
2022/08/17 02:24:24;;;;;;;3.27;2.90;;;17.80;84.40;;;;;;5074292;28;20629;-83
2022/08/17 02:26:54;;;;;;;3.30;3.00;;;17.80;85.90;;;;;;5083726;28;20632;-84
2022/08/17 02:29:21;;;;;;;3.90;3.20;;;17.70;86.00;;;;;;5087184;28;20628;-84
2022/08/17 02:31:48;;;;;;;3.80;3.00;;;17.80;85.80;;;;;;5087644;28;20661;-84
2022/08/17 02:34:16;;;;;;;3.83;3.40;;;17.80;85.00;;;;;;5074549;28;20622;-84
2022/08/17 02:36:44;;;;;;;3.20;2.53;;;17.90;84.20;;;;;;5068555;28;20723;-84
2022/08/17 02:39:12;;;;;;;3.00;2.80;;;17.90;83.90;;;;;;5073394;28;20635;-82
2022/08/17 02:41:40;;;;;;;3.20;2.90;;;17.80;83.60;;;;;;5068745;28;20678;-84
2022/08/17 02:44:09;;;;;;;3.30;2.93;;;17.80;83.80;;;;;;5079818;28;21074;-83
2022/08/17 02:46:36;;;;;;;4.13;3.10;;;17.80;85.50;;;;;;5078867;28;20723;-84
2022/08/17 02:49:04;;;;;;;3.30;3.00;;;17.80;85.40;;;;;;5081102;28;21007;-84
2022/08/17 02:51:34;;;;;;;3.73;3.00;;;17.80;86.60;;;;;;5079975;28;20655;-84
2022/08/17 02:54:01;;;;;;;4.50;3.37;;;17.80;86.80;;;;;;5088989;28;20948;-84
2022/08/17 02:56:31;;;;;;;4.40;4.00;;;17.80;87.00;;;;;;5086349;28;20748;-84
2022/08/17 02:58:58;;;;;;;4.00;3.57;;;17.80;86.60;;;;;;5081003;28;20643;-84
2022/08/17 03:01:27;;;;;;;3.53;3.20;;;17.80;86.80;;;;;;5088549;28;21081;-82
2022/08/17 03:03:54;;;;;;;2.70;2.50;;;17.80;85.70;;;;;;5078744;28;20635;-84
2022/08/17 03:06:20;;;;;;;4.63;3.87;;;17.70;86.80;;;;;;5087953;28;20682;-83
2022/08/17 03:08:47;;;;;;;3.73;3.20;;;17.80;87.30;;;;;;5086364;28;20624;-83
2022/08/17 03:11:15;;;;;;;3.40;3.10;;;17.70;87.60;;;;;;5079783;28;21275;-84
2022/08/17 03:13:41;;;;;;;4.07;3.50;;;17.80;86.40;;;;;;5083559;28;20633;-85
2022/08/17 03:16:09;;;;;;;3.70;3.37;;;17.70;87.10;;;;;;5068439;28;21296;-83
2022/08/17 03:18:37;;;;;;;4.00;3.23;;;17.80;88.80;;;;;;5068619;28;20929;-84
2022/08/17 03:21:05;;;;;;;3.70;3.33;;;17.70;89.30;;;;;;5067930;28;20683;-84
2022/08/17 03:23:32;;;;;;;3.53;2.60;;;17.70;89.80;;;;;;5081216;28;20698;-84
2022/08/17 03:26:00;;;;;;;3.60;3.30;;;17.70;89.40;;;;;;5074365;28;20720;-83
2022/08/17 03:28:28;;;;;;;5.23;4.73;;;17.80;89.60;;;;;;5069086;28;20598;-83
2022/08/17 03:30:55;;;;;;;4.00;3.30;;;17.70;90.00;;;;;;5088063;28;20656;-84
2022/08/17 03:33:22;;;;;;;3.47;3.17;;;17.60;90.30;;;;;;5082576;28;20632;-84
2022/08/17 03:35:50;;;;;;;3.50;3.20;;;17.50;90.80;;;;;;5067934;28;20625;-84
2022/08/17 03:38:18;;;;;;;3.80;3.30;;;17.50;90.90;;;;;;5073911;28;20634;-84
2022/08/17 03:40:46;;;;;;;3.47;3.00;;;17.50;90.80;;;;;;5071042;28;20642;-83
2022/08/17 03:43:14;;;;;;;3.30;2.67;;;17.60;90.70;;;;;;5080883;28;20621;-83
2022/08/17 03:56:52;;;;;;;3.33;3.07;;;17.50;89.30;;;;;;5076596;28;20631;-84
2022/08/17 03:59:21;;;;;;;3.40;3.10;;;17.50;88.70;;;;;;5101840;28;20628;-83
2022/08/17 04:01:51;;;;;;;4.07;3.77;;;17.40;89.10;;;;;;5087587;28;20723;-84
2022/08/17 04:04:19;;;;;;;3.83;3.53;;;17.50;89.90;;;;;;5078109;28;21008;-85
2022/08/17 04:06:48;;;;;;;3.63;3.33;;;17.50;89.60;;;;;;5071891;28;20648;-84
2022/08/17 04:09:15;;;;;;;4.10;3.63;;;17.40;88.90;;;;;;5074590;28;20613;-84
2022/08/17 04:11:42;;;;;;;4.63;2.77;;;17.40;89.30;;;;;;5085456;28;20648;-84
2022/08/17 04:14:09;;;;;;;3.10;2.77;;;17.50;89.00;;;;;;5074197;28;20688;-84
2022/08/17 04:16:37;;;;;;;3.10;2.80;;;17.50;88.20;;;;;;5067586;28;20856;-84
2022/08/17 04:19:05;;;;;;;2.93;2.63;;;17.50;87.70;;;;;;5091577;28;20634;-82
2022/08/17 04:21:32;;;;;;;3.20;2.50;;;17.50;88.20;;;;;;5083244;28;20633;-84
2022/08/17 04:24:00;;;;;;;5.40;3.60;;;17.50;88.60;;;;;;5079349;28;20737;-84
2022/08/17 04:26:28;;;;;;;4.10;3.17;;;17.50;88.50;;;;;;5094074;28;20616;-84
2022/08/17 04:28:55;;;;;;;3.17;2.77;;;17.50;89.80;;;;;;5090963;28;20643;-84
2022/08/17 04:31:22;;;;;;;4.20;3.17;;;17.40;90.30;;;;;;5094247;28;20762;-85
2022/08/17 04:33:49;;;;;;;3.23;3.00;;;17.40;88.80;;;;;;5089128;28;21182;-83
2022/08/17 04:36:16;;;;;;;5.50;4.00;;;17.50;88.80;;;;;;5090935;28;20701;-83
2022/08/17 04:38:45;;;;;;;3.30;3.00;;;17.50;88.20;;;;;;5079621;28;21014;-83
2022/08/17 04:44:02;;;;;;;4.00;3.60;;;17.30;88.00;;;;;;5080258;28;20972;-84
2022/08/17 04:46:32;;;;;;;4.00;3.67;;;17.20;89.30;;;;;;5091504;28;20612;-83
2022/08/17 04:49:01;;;;;;;3.93;3.53;;;17.20;89.60;;;;;;5074846;28;20621;-84
2022/08/17 04:51:29;;;;;;;3.03;2.73;;;17.20;90.00;;;;;;5074220;28;20984;-83
2022/08/17 04:53:59;;;;;;;3.40;3.10;;;17.20;90.80;;;;;;5074174;28;20941;-84
2022/08/17 04:56:29;;;;;;;2.90;2.60;;;17.20;90.60;;;;;;5073377;28;20633;-84
2022/08/17 04:58:57;;;;;;;3.13;2.80;;;17.10;91.00;;;;;;5073637;28;20614;-84
2022/08/17 05:01:26;;;;;;;3.27;3.07;;;17.20;90.70;;;;;;5073226;28;20686;-83
2022/08/17 05:03:55;;;;;;;3.67;3.37;;;17.20;90.30;;;;;;5073325;28;21219;-84
2022/08/17 05:06:22;;;;;;;3.80;3.50;;;17.40;90.30;;;;;;5076532;28;21084;-83
2022/08/17 05:08:49;;;;;;;3.83;3.27;;;17.30;90.10;;;;;;5093827;28;21201;-84
2022/08/17 05:11:16;;;;;;;3.90;3.30;;;17.40;89.50;;;;;;5083726;28;20612;-83
2022/08/17 05:13:44;;;;;;;4.83;3.50;;;17.40;90.00;;;;;;5093626;28;20755;-84
2022/08/17 05:16:11;;;;;;;4.87;3.83;;;17.50;90.10;;;;;;5074400;28;20641;-87
2022/08/17 05:18:38;;;;;;;9.57;4.07;;;17.50;90.30;;;;;;5082731;28;20624;-84
2022/08/17 05:21:06;;;;;;;3.40;3.10;;;17.60;90.70;;;;;;5093249;28;20647;-84
2022/08/17 05:23:34;;;;;;;4.17;3.70;;;17.60;90.50;;;;;;5085873;28;20622;-83
2022/08/17 05:26:01;;;;;;;4.97;3.47;;;17.60;90.70;;;;;;5093887;28;20633;-84
2022/08/17 05:28:28;;;;;;;4.20;3.80;;;17.60;90.60;;;;;;5083135;28;21057;-84
2022/08/17 05:30:59;;;;;;;4.10;3.00;;;17.70;90.80;;;;;;5069890;28;20674;-83
2022/08/17 05:33:28;;;;;;;3.83;3.50;;;17.80;90.60;;;;;;5076961;28;20963;-84
2022/08/17 05:35:57;;;;;;;4.67;3.73;;;17.80;90.70;;;;;;5072229;28;20622;-85
2022/08/17 05:38:27;;;;;;;3.70;3.03;;;17.90;90.30;;;;;;5083984;28;20635;-84
2022/08/17 05:40:54;;;;;;;3.43;3.13;;;18.00;91.00;;;;;;5076409;28;20685;-85
2022/08/17 05:43:24;;;;;;;3.67;3.30;;;18.00;90.60;;;;;;5090514;28;20628;-85
2022/08/17 05:46:00;;;;;;;5.50;3.47;;;18.20;90.60;;;;;;5074126;28;21017;-84
2022/08/17 05:48:28;;;;;;;3.97;3.60;;;18.30;90.90;;;;;;5069849;28;20628;-84
2022/08/17 05:51:02;;;;;;;4.40;3.17;;;18.40;90.20;;;;;;5070312;28;21035;-84
2022/08/17 05:53:37;;;;;;;3.60;3.17;;;18.60;89.50;;;;;;5072874;28;21236;-84
2022/08/17 05:56:13;;;;;;;4.10;3.50;;;18.70;90.10;;;;;;5077201;28;20632;-84
2022/08/17 05:58:51;;;;;;;3.30;3.00;;;18.80;90.40;;;;;;5078222;28;21258;-85
2022/08/17 06:01:30;;;;;;;3.73;3.03;;;18.90;91.10;;;;;;5083667;28;20708;-84
2022/08/17 06:04:07;;;;;;;3.90;3.50;;;19.10;90.80;;;;;;5088791;28;21186;-85
2022/08/17 06:06:41;;;;;;;3.70;3.17;;;19.20;90.10;;;;;;5077623;28;20641;-85
2022/08/17 06:09:21;;;;;;;4.33;3.87;;;19.30;89.90;;;;;;5078475;28;20618;-84
2022/08/17 06:11:53;;;;;;;4.07;3.00;;;19.50;87.20;;;;;;5070897;28;20699;-84
2022/08/17 06:14:32;;;;;;;3.53;3.23;;;19.60;88.00;;;;;;5069824;28;20661;-84
2022/08/17 06:17:04;;;;;;;3.60;3.30;;;19.60;86.00;;;;;;5077081;28;21207;-84
2022/08/17 06:19:38;;;;;;;4.63;3.20;;;19.80;85.20;;;;;;5087242;28;20620;-85
2022/08/17 06:22:07;;;;;;;3.90;2.83;;;19.90;83.70;;;;;;5089651;28;20693;-84
2022/08/17 06:24:38;;;;;;;3.50;2.87;;;20.10;83.30;;;;;;5071111;28;20629;-84
2022/08/17 06:27:11;;;;;;;3.40;2.90;;;20.30;81.60;;;;;;5089234;28;20652;-84
2022/08/17 06:29:46;;;;;;;4.30;3.63;;;20.50;80.40;;;;;;5087202;28;20625;-85
2022/08/17 06:32:15;;;;;;;4.80;3.20;;;20.60;79.70;;;;;;5089437;28;20651;-85
2022/08/17 06:34:43;;;;;;;3.20;3.00;;;20.70;79.30;;;;;;5083999;28;21032;-84
2022/08/17 06:37:27;;;;;;;3.77;3.37;;;20.70;80.60;;;;;;5088296;28;20650;-84
2022/08/17 06:40:02;;;;;;;5.17;3.87;;;20.80;81.90;;;;;;5083377;28;21182;-85
2022/08/17 06:42:39;;;;;;;3.10;2.80;;;20.90;81.60;;;;;;5077444;28;21187;-84
2022/08/17 06:45:11;;;;;;;4.47;3.70;;;21.10;80.10;;;;;;5080410;28;20620;-84
2022/08/17 06:47:47;;;;;;;3.97;3.67;;;21.40;79.10;;;;;;5079502;28;20606;-85
2022/08/17 06:50:20;;;;;;;3.93;3.60;;;21.40;78.80;;;;;;5087033;28;20620;-84
2022/08/17 06:52:53;;;;;;;3.80;3.30;;;21.70;77.80;;;;;;5088489;28;20644;-85
2022/08/17 06:55:26;;;;;;;4.80;3.40;;;21.90;76.20;;;;;;5087623;28;20635;-85
2022/08/17 06:57:58;;;;;;;3.47;3.17;;;22.00;75.10;;;;;;5086471;28;20641;-85
2022/08/17 07:00:32;;;;;;;4.23;3.80;;;22.10;73.90;;;;;;5083155;28;20627;-84
2022/08/17 07:03:05;;;;;;;3.70;3.40;;;22.20;72.60;;;;;;5088327;28;20639;-85
2022/08/17 07:05:37;;;;;;;3.90;3.40;;;22.40;72.80;;;;;;5083994;28;20632;-83
2022/08/17 07:08:10;;;;;;;3.50;3.20;;;22.50;72.40;;;;;;5086912;28;20632;-85
2022/08/17 07:10:42;;;;;;;3.90;3.50;;;22.60;71.70;;;;;;5082388;28;21051;-85
2022/08/17 07:13:37;;;;;;;3.87;3.57;;;22.50;72.90;;;;;;5086635;28;20657;-85
2022/08/17 07:16:15;;;;;;;3.37;3.10;;;22.60;71.40;;;;;;5073046;28;20637;-85
2022/08/17 07:18:44;;;;;;;4.10;3.80;;;22.70;71.30;;;;;;5068758;28;20630;-85
2022/08/17 07:21:22;;;;;;;3.73;3.23;;;23.00;69.60;;;;;;5076249;28;21257;-85
2022/08/17 07:24:01;;;;;;;3.57;2.73;;;23.10;70.50;;;;;;5087014;28;20624;-85
2022/08/17 07:26:28;;;;;;;3.93;3.53;;;23.30;69.00;;;;;;5075598;28;20657;-84
2022/08/17 07:28:56;;;;;;;4.00;3.10;;;23.40;67.70;;;;;;5068775;28;20617;-85
2022/08/17 07:31:24;;;;;;;3.50;3.20;;;23.60;67.40;;;;;;5076000;28;20987;-86
2022/08/17 07:34:06;;;;;;;3.00;2.67;;;23.50;65.40;;;;;;5080805;28;21264;-85
2022/08/17 07:36:33;;;;;;;5.10;3.33;;;23.40;67.50;;;;;;5083180;28;20699;-85
2022/08/17 07:39:02;;;;;;;4.03;3.50;;;23.40;66.30;;;;;;5072597;28;20676;-83
2022/08/17 07:41:34;;;;;;;3.40;3.00;;;23.40;65.60;;;;;;5084651;28;20620;-85
2022/08/17 07:44:01;;;;;;;3.60;3.30;;;23.40;65.90;;;;;;5087532;28;20664;-84
2022/08/17 07:49:24;;;;;;;2.80;2.60;;;23.40;66.00;;;;;;5086377;28;20612;-85
2022/08/17 07:51:59;;;;;;;3.10;2.90;;;23.40;66.40;;;;;;5086825;28;20705;-85
2022/08/17 07:54:31;;;;;;;3.87;3.27;;;23.40;65.30;;;;;;5084111;28;20755;-86
2022/08/17 07:57:00;;;;;;;3.20;2.90;;;23.50;66.00;;;;;;5078986;28;20701;-85
2022/08/17 07:59:29;;;;;;;3.97;3.17;;;23.40;64.30;;;;;;5081709;28;20994;-85
2022/08/17 08:02:21;;;;;;;3.30;3.10;;;23.50;65.40;;;;;;5068289;28;21246;-85
2022/08/17 08:05:00;;;;;;;3.40;3.07;;;23.60;65.60;;;;;;5084701;28;20637;-85
2022/08/17 08:07:30;;;;;;;3.27;3.07;;;23.50;64.20;;;;;;5086219;28;20716;-86
2022/08/17 08:10:07;;;;;;;3.20;2.90;;;23.50;64.90;;;;;;5086696;28;20616;-85
2022/08/17 08:12:36;;;;;;;3.43;3.00;;;23.50;63.90;;;;;;5067156;28;20633;-85
2022/08/17 08:15:14;;;;;;;3.83;2.77;;;23.60;63.70;;;;;;5066806;28;20638;-85
2022/08/17 08:17:53;;;;;;;3.20;2.93;;;23.60;66.40;;;;;;5066972;28;20637;-84
2022/08/17 08:20:31;;;;;;;3.70;3.30;;;23.60;64.70;;;;;;5067645;28;20625;-86
2022/08/17 08:23:06;;;;;;;3.93;3.53;;;23.70;64.80;;;;;;5085675;28;20639;-86
2022/08/17 08:25:45;;;;;;;3.67;3.37;;;23.70;66.40;;;;;;5075531;28;21038;-85
2022/08/17 08:28:26;;;;;;;4.27;3.03;;;23.70;66.50;;;;;;5067138;28;20625;-85
2022/08/17 08:31:00;;;;;;;3.07;2.87;;;23.70;68.40;;;;;;5078583;28;20629;-86
2022/08/17 08:33:43;;;;;;;3.87;3.27;;;23.70;68.60;;;;;;5084044;28;20663;-86
2022/08/17 08:36:25;;;;;;;3.50;3.20;;;23.70;71.00;;;;;;5069173;28;20618;-86
2022/08/17 08:38:59;;;;;;;3.50;3.17;;;23.60;69.90;;;;;;5085597;28;20678;-85
2022/08/17 08:41:35;;;;;;;3.33;3.13;;;23.70;71.00;;;;;;5086866;28;20682;-86
2022/08/17 08:44:11;;;;;;;3.20;2.90;;;23.60;72.40;;;;;;5085359;28;20624;-85
2022/08/17 08:46:50;;;;;;;3.67;3.37;;;23.60;68.60;;;;;;5066773;28;20686;-85
2022/08/17 08:49:58;;;;;;;3.90;3.50;;;23.50;68.30;;;;;;5068820;28;20629;-85
2022/08/17 08:53:01;;;;;;;3.70;3.40;;;23.40;70.80;;;;;;5053970;28;20672;-86
2022/08/17 08:55:36;;;;;;;4.17;3.77;;;23.50;71.60;;;;;;5078755;28;20639;-86
2022/08/17 08:58:08;;;;;;;4.47;4.13;;;23.40;74.00;;;;;;5076638;28;20640;-86
2022/08/17 09:00:43;;;;;;;3.57;3.23;;;23.30;72.10;;;;;;5074064;28;20637;-85
2022/08/17 09:03:32;;;;;;;4.77;4.30;;;23.30;72.00;;;;;;5088132;28;20623;-85
2022/08/17 09:06:07;;;;;;;4.20;3.70;;;23.40;70.50;;;;;;5089334;28;20648;-86
2022/08/17 09:08:49;;;;;;;4.80;4.40;;;23.40;74.90;;;;;;5077107;28;20727;-85
2022/08/17 09:11:24;;;;;;;4.50;4.20;;;23.30;80.30;;;;;;5090126;28;20612;-86
2022/08/17 09:13:57;;;;;;;4.13;3.47;;;23.10;83.50;;;;;;5070597;28;20668;-86
2022/08/17 09:16:29;;;;;;;4.07;3.17;;;23.10;84.40;;;;;;5069377;28;20665;-86
2022/08/17 09:19:03;;;;;;;3.73;3.43;;;22.90;86.10;;;;;;5068869;28;20651;-86
2022/08/17 09:21:36;;;;;;;4.60;4.20;;;22.80;86.60;;;;;;5073382;28;20636;-86
2022/08/17 09:24:11;;;;;;;5.07;4.63;;;22.70;90.00;;;;;;5071678;28;20637;-86
2022/08/17 09:26:43;;;;;;;5.30;4.00;;;22.70;85.50;;;;;;5082481;28;20711;-86
2022/08/17 09:29:14;;;;;;;4.13;3.83;;;22.60;90.50;;;;;;5072906;28;20726;-86
2022/08/17 09:31:47;;;;;;;4.00;3.60;;;22.50;90.70;;;;;;5079282;28;21057;-85
2022/08/17 09:34:17;;;;;;;3.70;3.37;;;22.50;92.20;;;;;;5084682;28;20645;-86
2022/08/17 09:36:50;;;;;;;6.40;3.20;;;22.50;92.90;;;;;;5070013;28;21231;-85
2022/08/17 09:39:24;;;;;;;4.07;3.57;;;22.60;91.40;;;;;;5086111;28;21182;-84
2022/08/17 09:41:55;;;;;;;5.80;4.70;;;22.50;91.70;;;;;;5090163;28;21174;-85
2022/08/17 09:44:31;;;;;;;5.50;3.60;;;22.70;90.60;;;;;;5084406;28;20725;-86
2022/08/17 09:47:05;;;;;;;4.10;3.73;;;22.60;85.70;;;;;;5089448;28;20633;-85
2022/08/17 09:49:38;;;;;;;6.30;3.90;;;22.70;88.60;;;;;;5090469;28;20647;-84
2022/08/17 09:52:11;;;;;;;4.43;4.10;;;22.70;90.20;;;;;;5088515;28;20705;-86
2022/08/17 09:54:41;;;;;;;4.40;4.00;;;22.70;90.00;;;;;;5070951;28;20696;-86
2022/08/17 09:57:21;;;;;;;4.60;4.13;;;22.60;91.00;;;;;;5078268;28;21047;-85
2022/08/17 10:00:06;;;;;;;4.07;3.67;;;22.40;92.50;;;;;;5081514;28;20991;-86
2022/08/17 10:02:52;;;;;;;5.70;4.10;;;22.40;95.00;;;;;;5078211;28;21006;-86
2022/08/17 10:05:24;;;;;;;4.20;3.90;;;22.50;97.10;;;;;;5073871;28;20633;-85
2022/08/17 10:07:55;;;;;;;4.00;3.60;;;22.40;96.00;;;;;;5069598;28;20625;-86
2022/08/17 10:10:29;;;;;;;4.17;3.53;;;22.40;91.70;;;;;;5079878;28;20659;-86
2022/08/17 10:13:01;;;;;;;3.60;2.70;;;22.50;92.60;;;;;;5083439;28;20614;-85
2022/08/17 10:15:38;;;;;;;4.60;2.83;;;22.60;88.70;;;;;;5085306;28;20969;-86
2022/08/17 10:18:34;;;;;;;3.70;3.40;;;22.80;90.60;;;;;;5067392;28;20621;-85
2022/08/17 10:26:44;;;;;;;5.50;3.77;;;22.90;92.60;;;;;;5075951;28;20618;-85
2022/08/17 10:29:16;;;;;;;5.50;2.40;;;22.90;91.90;;;;;;5088532;28;20731;-85
2022/08/17 10:31:46;;;;;;;3.80;3.27;;;22.80;86.50;;;;;;5085282;28;20633;-85
2022/08/17 10:34:33;;;;;;;3.07;2.83;;;22.80;87.00;;;;;;5077874;28;21261;-86
2022/08/17 10:37:08;;;;;;;3.40;3.17;;;22.90;81.40;;;;;;5085987;28;20627;-86
2022/08/17 10:39:43;;;;;;;3.40;2.87;;;23.10;85.50;;;;;;5069159;28;20629;-85
2022/08/17 10:42:20;;;;;;;3.30;2.80;;;23.10;78.30;;;;;;5070124;28;21496;-86
2022/08/17 10:44:55;;;;;;;2.80;2.47;;;23.00;78.40;;;;;;5069930;28;20652;-86
2022/08/17 10:47:25;;;;;;;3.00;2.70;;;23.00;81.80;;;;;;5068751;28;20668;-86
2022/08/17 10:49:54;;;;;;;2.97;2.77;;;23.20;83.30;;;;;;5073908;28;20715;-85
2022/08/17 10:52:48;;;;;;;3.50;3.17;;;22.90;84.80;;;;;;5089404;28;20609;-85
2022/08/17 10:55:19;;;;;;;3.80;3.50;;;22.90;87.60;;;;;;5068709;28;20711;-85
2022/08/17 10:57:49;;;;;;;3.80;3.47;;;22.60;84.10;;;;;;5076118;28;20648;-85
2022/08/17 11:01:10;;;;;;;2.63;2.43;;;22.60;78.90;;;;;;5075018;28;20638;-85
2022/08/17 11:03:37;;;;;;;2.90;2.70;;;22.60;79.90;;;;;;5067816;28;20629;-85
2022/08/17 11:06:17;;;;;;;3.03;2.80;;;22.60;81.60;;;;;;5078097;28;20723;-84
2022/08/17 11:09:26;;;;;;;3.70;2.97;;;22.60;82.40;;;;;;5074723;28;20617;-85
2022/08/17 11:12:11;;;;;;;2.50;2.30;;;22.50;80.30;;;;;;5075214;28;20682;-85
2022/08/17 11:15:10;;;;;;;2.73;2.53;;;22.30;81.40;;;;;;5074596;28;20697;-85
2022/08/17 11:17:53;;;;;;;2.97;2.73;;;22.30;83.40;;;;;;5077719;28;20958;-85
2022/08/17 11:20:45;;;;;;;2.83;2.27;;;22.20;83.80;;;;;;5087490;28;20625;-85
2022/08/17 11:23:49;;;;;;;3.83;2.93;;;22.20;84.00;;;;;;5052636;28;20634;-85
2022/08/17 11:26:24;;;;;;;3.13;2.67;;;22.20;83.90;;;;;;5074658;28;20620;-85
2022/08/17 11:28:57;;;;;;;2.73;2.53;;;22.10;83.40;;;;;;5079374;28;20642;-85
2022/08/17 11:31:30;;;;;;;3.87;3.47;;;22.00;83.40;;;;;;5085387;28;20688;-85
2022/08/17 11:34:13;;;;;;;2.70;2.50;;;22.10;84.70;;;;;;5087875;28;21191;-85
2022/08/17 11:37:22;;;;;;;2.57;2.37;;;21.90;85.90;;;;;;5085120;28;20639;-85
2022/08/17 11:40:06;;;;;;;3.03;2.33;;;21.80;86.00;;;;;;5065282;28;20628;-85
2022/08/17 11:42:49;;;;;;;2.50;2.30;;;21.80;88.00;;;;;;5069773;28;20965;-86
2022/08/17 11:45:40;;;;;;;2.70;2.50;;;21.90;87.20;;;;;;5087924;28;20663;-85
2022/08/17 11:51:33;;;;;;;3.33;2.83;;;21.80;86.60;;;;;;5067547;28;20620;-85
2022/08/17 11:54:08;;;;;;;3.90;2.70;;;21.70;88.00;;;;;;5069174;28;20695;-85
2022/08/17 11:56:42;;;;;;;3.00;2.70;;;21.60;89.00;;;;;;5078640;28;20728;-86
2022/08/17 11:59:46;;;;;;;3.07;2.87;;;21.70;89.80;;;;;;5070235;28;20616;-85
2022/08/17 12:02:41;;;;;;;2.90;2.60;;;21.80;88.20;;;;;;5068083;28;20629;-85
2022/08/17 12:05:33;;;;;;;2.73;2.53;;;21.90;88.80;;;;;;5079764;28;21227;-85
2022/08/17 12:08:13;;;;;;;3.10;2.33;;;22.00;87.80;;;;;;5083909;28;20724;-84
2022/08/17 12:10:55;;;;;;;2.37;2.10;;;22.10;87.30;;;;;;5067935;28;20613;-85
2022/08/17 12:13:26;;;;;;;2.90;2.53;;;22.20;87.40;;;;;;5082531;28;21187;-86
2022/08/17 12:15:55;;;;;;;2.63;2.43;;;22.30;87.90;;;;;;5087983;28;20667;-86
2022/08/17 12:18:24;;;;;;;2.87;2.60;;;22.50;87.60;;;;;;5079967;28;20728;-85
2022/08/17 12:21:14;;;;;;;2.53;2.33;;;22.70;85.70;;;;;;5087057;28;20996;-85
2022/08/17 12:23:48;;;;;;;3.13;2.83;;;22.80;82.70;;;;;;5072760;28;20621;-85
2022/08/17 12:26:18;;;;;;;3.10;2.80;;;22.90;83.30;;;;;;5068099;28;20624;-86
2022/08/17 12:28:48;;;;;;;3.30;2.67;;;23.00;84.30;;;;;;5070082;28;20689;-85
2022/08/17 12:31:20;;;;;;;3.03;2.77;;;23.10;81.90;;;;;;5075372;28;20628;-86
2022/08/17 12:33:48;;;;;;;3.00;2.70;;;23.10;80.50;;;;;;5067275;28;20716;-85
2022/08/17 12:36:23;;;;;;;2.63;2.17;;;23.20;82.50;;;;;;5066941;28;20622;-85
2022/08/17 12:38:52;;;;;;;2.67;2.47;;;23.30;81.10;;;;;;5069515;28;20636;-85
2022/08/17 12:41:32;;;;;;;2.50;2.30;;;23.50;78.00;;;;;;5071983;28;21217;-85
2022/08/17 12:44:02;;;;;;;6.90;3.03;;;23.40;80.80;;;;;;5071277;28;20652;-86
2022/08/17 12:46:34;;;;;;;2.80;2.60;;;23.60;80.40;;;;;;5070917;28;21199;-85
2022/08/17 12:49:22;;;;;;;2.80;2.40;;;23.60;79.70;;;;;;5071390;28;21551;-85
2022/08/17 12:51:55;;;;;;;2.47;2.27;;;23.80;81.20;;;;;;5070710;28;21257;-86
2022/08/17 12:54:32;;;;;;;2.70;1.93;;;24.20;81.30;;;;;;5070815;28;20668;-85
2022/08/17 12:57:05;;;;;;;3.23;2.80;;;25.70;74.10;;;;;;5070385;28;20643;-88
2022/08/17 12:59:33;;;;;;;2.17;2.07;;;27.90;59.80;;;;;;5071361;28;20675;-88
2022/08/17 13:02:01;;;;;;;2.30;2.10;;;29.70;55.70;;;;;;5077304;28;20698;-87
2022/08/17 13:04:28;;;;;;;2.43;2.23;;;31.10;50.30;;;;;;5073075;28;20653;-88
2022/08/17 13:06:57;;;;;;;3.00;2.80;;;31.70;49.20;;;;;;5087764;28;20656;-86
2022/08/17 13:09:29;;;;;;;3.17;2.23;;;32.50;48.40;;;;;;5076773;28;20978;-87
2022/08/17 13:11:59;;;;;;;2.63;2.43;;;32.90;46.20;;;;;;5085445;28;20723;-87
2022/08/17 13:14:27;;;;;;;2.73;2.53;;;33.10;47.90;;;;;;5085290;28;20652;-87
2022/08/17 13:16:58;;;;;;;3.30;3.00;;;33.10;46.30;;;;;;5078040;28;20621;-87
2022/08/17 13:19:27;;;;;;;2.83;2.63;;;33.40;47.60;;;;;;5087402;28;20616;-87
2022/08/17 13:21:57;;;;;;;3.13;2.73;;;33.40;48.00;;;;;;5079158;28;20627;-87
2022/08/17 13:24:28;;;;;;;3.10;2.80;;;32.30;48.00;;;;;;5074847;28;20721;-86
2022/08/17 13:27:06;;;;;;;3.10;2.80;;;32.70;48.80;;;;;;5080536;28;21039;-87
2022/08/17 13:29:37;;;;;;;2.50;2.30;;;32.50;48.80;;;;;;5072259;28;20625;-88
2022/08/17 13:32:18;;;;;;;2.27;2.10;;;31.90;47.70;;;;;;5075772;28;20930;-86
2022/08/17 13:34:47;;;;;;;3.20;2.90;;;32.20;48.90;;;;;;5079949;28;20757;-86
2022/08/17 13:37:25;;;;;;;2.87;2.67;;;33.30;45.70;;;;;;5087712;28;20668;-87
2022/08/17 13:39:53;;;;;;;3.23;3.03;;;34.20;45.90;;;;;;5071231;28;20616;-88
2022/08/17 13:42:31;;;;;;;2.93;2.63;;;34.20;42.40;;;;;;5086408;28;21168;-88